Time;durP1;ratioP1;P1;durP2;ratioP2;P2;SDS_P1;SDS_P2;PMS_P1;PMS_P2;Temp;Humidity;BMP_temperature;BMP_pressure;BME280_temperature;BME280_humidity;BME280_pressure;Samples;Min_cycle;Max_cycle;Signal;HPM_P1;HPM_P2
2021/11/16 00:00:46;;;;;;;55.20;23.55;;;;;;;;;;5046994;28;20057;-72
2021/11/16 00:03:13;;;;;;;53.63;23.95;;;;;;;;;;5055189;28;20049;-73
2021/11/16 00:05:39;;;;;;;56.97;25.38;;;;;;;;;;5045998;28;20055;-72
2021/11/16 00:08:06;;;;;;;55.88;24.10;;;;;;;;;;5048086;28;20044;-72
2021/11/16 00:10:33;;;;;;;58.70;25.15;;;;;;;;;;5046896;28;20048;-72
2021/11/16 00:13:00;;;;;;;59.38;24.85;;;;;;;;;;5055057;28;20051;-72
2021/11/16 00:15:27;;;;;;;60.40;25.08;;;;;;;;;;5054223;28;20044;-72
2021/11/16 00:17:53;;;;;;;62.17;24.60;;;;;;;;;;5047178;28;20484;-72
2021/11/16 00:20:20;;;;;;;59.83;25.65;;;;;;;;;;5052293;28;20508;-73
2021/11/16 00:22:47;;;;;;;56.30;24.02;;;;;;;;;;5041420;28;20047;-72
2021/11/16 00:27:42;;;;;;;53.45;23.77;;;;;;;;;;5047398;28;20052;-72
2021/11/16 00:30:09;;;;;;;52.28;22.92;;;;;;;;;;5053313;28;20056;-73
2021/11/16 00:32:35;;;;;;;56.08;24.00;;;;;;;;;;5054707;28;20052;-72
2021/11/16 00:35:02;;;;;;;55.53;23.98;;;;;;;;;;5041562;28;20091;-72
2021/11/16 00:37:29;;;;;;;54.78;22.02;;;;;;;;;;5050904;28;20067;-73
2021/11/16 00:39:56;;;;;;;59.72;24.05;;;;;;;;;;5046439;28;20394;-72
2021/11/16 00:42:23;;;;;;;61.17;22.70;;;;;;;;;;5054735;28;20051;-72
2021/11/16 00:44:49;;;;;;;49.22;23.05;;;;;;;;;;5046887;28;20857;-72
2021/11/16 00:47:16;;;;;;;56.83;24.38;;;;;;;;;;5050609;28;20266;-72
2021/11/16 00:49:42;;;;;;;55.08;23.52;;;;;;;;;;5048379;28;20616;-72
2021/11/16 00:52:09;;;;;;;51.85;23.55;;;;;;;;;;5045904;28;20045;-72
2021/11/16 00:54:36;;;;;;;59.38;24.65;;;;;;;;;;5054112;28;20044;-72
2021/11/16 00:57:04;;;;;;;55.35;23.98;;;;;;;;;;5047414;28;20075;-72
2021/11/16 00:59:30;;;;;;;;;;;;;;;;;;5054329;28;20044;-73
2021/11/16 01:01:57;;;;;;;52.80;22.50;;;;;;;;;;5041958;28;19935;-73
2021/11/16 01:04:27;;;;;;;50.20;22.55;;;;;;;;;;5047601;28;20052;-72
2021/11/16 01:06:54;;;;;;;50.45;22.92;;;;;;;;;;5052839;28;20102;-73
2021/11/16 01:09:21;;;;;;;61.00;25.45;;;;;;;;;;5044634;28;20318;-72
2021/11/16 01:11:47;;;;;;;55.30;24.92;;;;;;;;;;5054371;28;20063;-72
2021/11/16 01:14:14;;;;;;;57.80;24.55;;;;;;;;;;5046763;28;20052;-72
2021/11/16 01:16:41;;;;;;;59.65;24.42;;;;;;;;;;5030290;28;20052;-73
2021/11/16 01:19:09;;;;;;;56.33;24.48;;;;;;;;;;5042435;28;20048;-73
2021/11/16 01:21:35;;;;;;;56.38;23.63;;;;;;;;;;5053753;28;20056;-72
2021/11/16 01:24:04;;;;;;;54.03;24.15;;;;;;;;;;5055578;28;20053;-73
2021/11/16 01:26:30;;;;;;;57.25;24.67;;;;;;;;;;5045244;28;20432;-72
2021/11/16 01:28:59;;;;;;;50.85;21.80;;;;;;;;;;5054550;28;20059;-72
2021/11/16 01:31:27;;;;;;;51.28;24.10;;;;;;;;;;5038640;28;20052;-72
2021/11/16 01:33:58;;;;;;;54.38;23.85;;;;;;;;;;5051448;28;20573;-72
2021/11/16 01:36:25;;;;;;;52.92;23.08;;;;;;;;;;5045615;28;20052;-72
2021/11/16 01:38:53;;;;;;;52.00;23.45;;;;;;;;;;5052957;28;20049;-72
2021/11/16 01:41:20;;;;;;;52.85;23.20;;;;;;;;;;5053589;28;20063;-72
2021/11/16 01:43:46;;;;;;;56.50;24.05;;;;;;;;;;5040764;28;20057;-72
2021/11/16 01:46:14;;;;;;;48.33;22.42;;;;;;;;;;5049849;28;20052;-73
2021/11/16 01:48:41;;;;;;;58.88;23.92;;;;;;;;;;5044939;28;20059;-73
2021/11/16 01:51:07;;;;;;;56.08;24.20;;;;;;;;;;5053562;28;20048;-73
2021/11/16 01:53:35;;;;;;;53.13;23.05;;;;;;;;;;5045204;28;20060;-72
2021/11/16 01:56:02;;;;;;;59.10;24.55;;;;;;;;;;5052722;28;20394;-73
2021/11/16 01:58:28;;;;;;;58.10;24.42;;;;;;;;;;5051362;28;20057;-73
2021/11/16 02:00:55;;;;;;;57.03;24.58;;;;;;;;;;5042890;28;20048;-73
2021/11/16 02:03:23;;;;;;;57.08;23.27;;;;;;;;;;5057624;28;20127;-73
2021/11/16 02:05:51;;;;;;;55.63;23.27;;;;;;;;;;5048055;28;20092;-70
2021/11/16 02:08:18;;;;;;;58.40;24.95;;;;;;;;;;5058133;28;20493;-70
2021/11/16 02:10:49;;;;;;;51.38;24.17;;;;;;;;;;5049276;28;20076;-70
2021/11/16 02:13:19;;;;;;;57.45;23.95;;;;;;;;;;5048043;28;20394;-71
2021/11/16 02:15:49;;;;;;;55.92;24.13;;;;;;;;;;5055227;28;20375;-70
2021/11/16 02:18:15;;;;;;;56.13;23.33;;;;;;;;;;5051327;28;20048;-70
2021/11/16 02:20:46;;;;;;;55.47;23.73;;;;;;;;;;5057812;28;20090;-71
2021/11/16 02:23:13;;;;;;;53.25;23.50;;;;;;;;;;5049143;28;20045;-71
2021/11/16 02:25:40;;;;;;;53.17;22.80;;;;;;;;;;5049322;28;20448;-72
2021/11/16 02:28:06;;;;;;;49.88;21.65;;;;;;;;;;5044697;28;20368;-72
2021/11/16 02:30:33;;;;;;;51.85;23.05;;;;;;;;;;5038198;28;20057;-72
2021/11/16 02:33:00;;;;;;;59.20;23.05;;;;;;;;;;5031033;28;20064;-71
2021/11/16 02:35:27;;;;;;;57.58;24.75;;;;;;;;;;5055497;28;20055;-72
2021/11/16 02:37:54;;;;;;;50.78;22.45;;;;;;;;;;5055484;28;20273;-71
2021/11/16 02:40:21;;;;;;;55.72;23.52;;;;;;;;;;5043089;28;20469;-71
2021/11/16 02:42:47;;;;;;;55.83;22.40;;;;;;;;;;5055720;28;20669;-71
2021/11/16 02:45:16;;;;;;;53.38;23.20;;;;;;;;;;5048276;28;20094;-71
2021/11/16 02:47:43;;;;;;;56.67;22.90;;;;;;;;;;5039008;28;20041;-71
2021/11/16 02:50:09;;;;;;;50.83;22.17;;;;;;;;;;5048784;28;20056;-71
2021/11/16 02:52:36;;;;;;;52.85;23.92;;;;;;;;;;5051644;28;20049;-71
2021/11/16 02:55:03;;;;;;;54.75;23.60;;;;;;;;;;5052878;28;20139;-71
2021/11/16 02:57:30;;;;;;;56.63;24.02;;;;;;;;;;5047090;28;20056;-72
2021/11/16 02:59:58;;;;;;;53.35;23.83;;;;;;;;;;5056768;28;20063;-71
2021/11/16 03:02:25;;;;;;;55.33;24.83;;;;;;;;;;5048178;28;20425;-71
2021/11/16 03:04:51;;;;;;;49.65;21.92;;;;;;;;;;5051367;28;20239;-72
2021/11/16 03:07:31;;;;;;;54.00;22.17;;;;;;;;;;5042369;28;20056;-72
2021/11/16 03:09:58;;;;;;;59.53;24.90;;;;;;;;;;5054216;28;20837;-71
2021/11/16 03:12:25;;;;;;;54.42;22.60;;;;;;;;;;5056324;28;20409;-71
2021/11/16 03:14:51;;;;;;;57.25;24.00;;;;;;;;;;5049424;28;20052;-71
2021/11/16 03:17:17;;;;;;;59.42;23.75;;;;;;;;;;5057222;28;20097;-71
2021/11/16 03:19:44;;;;;;;59.05;24.35;;;;;;;;;;5046066;28;20044;-71
2021/11/16 03:22:10;;;;;;;59.15;24.55;;;;;;;;;;5054299;28;20067;-70
2021/11/16 03:24:37;;;;;;;53.03;22.80;;;;;;;;;;5053045;28;20048;-71
2021/11/16 03:27:08;;;;;;;52.38;22.48;;;;;;;;;;5055925;28;20044;-71
2021/11/16 03:29:37;;;;;;;50.63;22.70;;;;;;;;;;5057215;28;20063;-71
2021/11/16 03:32:09;;;;;;;53.38;22.80;;;;;;;;;;5048388;28;20055;-72
2021/11/16 03:34:36;;;;;;;52.17;23.13;;;;;;;;;;5049149;28;20450;-71
2021/11/16 03:37:03;;;;;;;53.28;23.83;;;;;;;;;;5027767;28;21017;-71
2021/11/16 03:39:29;;;;;;;53.65;23.40;;;;;;;;;;5056987;28;20562;-71
2021/11/16 03:41:56;;;;;;;54.53;23.50;;;;;;;;;;5048570;28;20052;-71
2021/11/16 03:44:22;;;;;;;52.53;22.75;;;;;;;;;;5056907;28;20048;-71
2021/11/16 03:46:49;;;;;;;58.00;24.30;;;;;;;;;;5030299;28;20063;-71
2021/11/16 03:49:15;;;;;;;61.70;25.05;;;;;;;;;;5033851;28;20661;-71
2021/11/16 03:51:44;;;;;;;53.25;23.70;;;;;;;;;;5057894;28;20327;-71
2021/11/16 03:54:11;;;;;;;54.08;22.70;;;;;;;;;;5033026;28;20057;-71
2021/11/16 03:56:38;;;;;;;64.97;25.40;;;;;;;;;;5056479;28;20445;-73
2021/11/16 03:59:04;;;;;;;58.85;24.20;;;;;;;;;;5050271;28;20802;-71
2021/11/16 04:01:30;;;;;;;53.35;23.40;;;;;;;;;;5050511;28;20416;-70
2021/11/16 04:04:00;;;;;;;57.30;22.85;;;;;;;;;;5043411;28;20079;-70
2021/11/16 04:06:27;;;;;;;58.28;24.20;;;;;;;;;;5037249;28;20689;-71
2021/11/16 04:08:53;;;;;;;59.50;23.83;;;;;;;;;;5038855;28;20056;-70
2021/11/16 04:11:20;;;;;;;57.90;23.38;;;;;;;;;;5048357;28;20052;-71
2021/11/16 04:13:46;;;;;;;59.25;24.13;;;;;;;;;;5056601;28;20044;-70
2021/11/16 04:16:13;;;;;;;53.22;23.02;;;;;;;;;;5044240;28;20059;-70
2021/11/16 04:18:39;;;;;;;53.53;23.63;;;;;;;;;;5054771;28;20053;-70
2021/11/16 04:21:05;;;;;;;58.65;23.75;;;;;;;;;;5048824;28;20052;-70
2021/11/16 04:23:32;;;;;;;65.03;26.17;;;;;;;;;;5055880;28;20432;-71
2021/11/16 04:25:58;;;;;;;62.78;26.33;;;;;;;;;;5056347;28;20049;-72
2021/11/16 04:28:24;;;;;;;56.88;25.08;;;;;;;;;;5026781;28;20071;-70
2021/11/16 04:30:52;;;;;;;64.10;25.83;;;;;;;;;;5052041;28;20059;-70
2021/11/16 04:33:19;;;;;;;60.90;26.20;;;;;;;;;;5030031;28;20055;-71
2021/11/16 04:35:45;;;;;;;62.08;26.40;;;;;;;;;;5057469;28;20051;-70
2021/11/16 04:38:14;;;;;;;56.70;24.88;;;;;;;;;;5052403;28;20060;-71
2021/11/16 04:40:42;;;;;;;57.25;23.52;;;;;;;;;;5058000;28;20041;-70
2021/11/16 04:43:11;;;;;;;61.22;25.30;;;;;;;;;;5049462;28;20049;-70
2021/11/16 04:45:38;;;;;;;57.17;25.40;;;;;;;;;;5047823;28;20052;-70
2021/11/16 04:48:10;;;;;;;59.15;23.95;;;;;;;;;;5057212;28;20048;-72
2021/11/16 04:53:48;;;;;;;60.85;24.23;;;;;;;;;;5057101;28;20816;-70
2021/11/16 05:04:23;;;;;;;61.97;25.67;;;;;;;;;;5056991;28;20146;-72
2021/11/16 05:06:51;;;;;;;61.80;25.33;;;;;;;;;;5049499;28;20056;-72
2021/11/16 05:09:18;;;;;;;;;;;;;;;;;;5050292;28;20376;-70
2021/11/16 05:11:44;;;;;;;60.17;23.88;;;;;;;;;;5036795;28;19934;-71
2021/11/16 05:14:12;;;;;;;57.15;24.92;;;;;;;;;;5049432;28;20056;-72
2021/11/16 05:16:38;;;;;;;69.20;26.73;;;;;;;;;;5055750;28;20045;-72
2021/11/16 05:19:04;;;;;;;59.85;25.23;;;;;;;;;;5034215;28;20106;-72
2021/11/16 05:21:31;;;;;;;58.25;23.52;;;;;;;;;;5055098;28;20910;-72
2021/11/16 05:23:58;;;;;;;56.45;23.73;;;;;;;;;;5044231;28;20159;-72
2021/11/16 05:26:27;;;;;;;64.57;25.67;;;;;;;;;;5056912;28;20066;-72
2021/11/16 05:28:54;;;;;;;;;;;;;;;;;;5050350;28;20063;-72
2021/11/16 05:31:21;;;;;;;60.58;24.63;;;;;;;;;;5056970;28;21368;-72
2021/11/16 05:33:48;;;;;;;70.40;25.70;;;;;;;;;;5060805;28;20537;-72
2021/11/16 05:36:18;;;;;;;71.78;26.70;;;;;;;;;;5047148;28;20067;-72
2021/11/16 05:38:48;;;;;;;71.90;27.83;;;;;;;;;;5055313;28;21113;-72
2021/11/16 05:41:15;;;;;;;70.13;26.98;;;;;;;;;;5052996;28;20051;-71
2021/11/16 05:43:44;;;;;;;70.30;26.50;;;;;;;;;;5060460;28;20048;-72
2021/11/16 05:46:11;;;;;;;77.90;27.85;;;;;;;;;;5034732;28;20052;-71
2021/11/16 05:48:39;;;;;;;73.38;27.70;;;;;;;;;;5058464;28;20080;-71
2021/11/16 05:51:06;;;;;;;67.10;24.40;;;;;;;;;;5055974;28;20048;-71
2021/11/16 05:53:33;;;;;;;76.72;27.13;;;;;;;;;;5047207;28;20049;-72
2021/11/16 05:56:00;;;;;;;73.73;26.83;;;;;;;;;;5058761;28;20048;-72
2021/11/16 05:58:26;;;;;;;60.88;24.25;;;;;;;;;;5034396;28;20055;-71
2021/11/16 06:00:53;;;;;;;78.75;26.58;;;;;;;;;;5059794;28;20205;-71
2021/11/16 06:03:20;;;;;;;72.10;25.20;;;;;;;;;;5045848;28;20999;-72
2021/11/16 06:05:46;;;;;;;69.95;25.38;;;;;;;;;;5050305;28;20041;-72
2021/11/16 06:08:20;;;;;;;70.22;24.33;;;;;;;;;;5058214;28;20048;-72
2021/11/16 06:10:46;;;;;;;67.50;24.55;;;;;;;;;;5049220;28;20044;-72
2021/11/16 06:13:13;;;;;;;72.05;25.65;;;;;;;;;;5060382;28;20047;-71
2021/11/16 06:15:39;;;;;;;64.68;24.52;;;;;;;;;;5034604;28;20040;-72
2021/11/16 06:18:05;;;;;;;67.07;25.25;;;;;;;;;;5056289;28;20045;-72
2021/11/16 06:20:41;;;;;;;70.68;24.67;;;;;;;;;;5052653;28;20059;-71
2021/11/16 06:23:11;;;;;;;64.03;24.23;;;;;;;;;;5058305;28;20047;-72
2021/11/16 06:25:38;;;;;;;70.82;23.98;;;;;;;;;;5059076;28;20052;-71
2021/11/16 06:28:04;;;;;;;66.70;23.92;;;;;;;;;;5050856;28;20094;-72
2021/11/16 06:30:31;;;;;;;64.65;24.98;;;;;;;;;;5051638;28;20055;-72
2021/11/16 06:32:57;;;;;;;67.53;24.17;;;;;;;;;;5045972;28;20049;-72
2021/11/16 06:35:25;;;;;;;69.15;24.85;;;;;;;;;;5058999;28;20052;-72
2021/11/16 06:37:52;;;;;;;62.25;24.05;;;;;;;;;;5050748;28;20516;-72
2021/11/16 06:40:18;;;;;;;63.70;23.48;;;;;;;;;;5058320;28;20048;-71
2021/11/16 06:42:45;;;;;;;67.97;24.25;;;;;;;;;;5057011;28;20059;-72
2021/11/16 06:45:11;;;;;;;76.68;27.38;;;;;;;;;;5040639;28;20266;-71
2021/11/16 06:47:38;;;;;;;68.70;26.13;;;;;;;;;;5057758;28;20041;-71
2021/11/16 06:50:05;;;;;;;70.00;24.75;;;;;;;;;;5050999;28;20163;-71
2021/11/16 06:52:34;;;;;;;62.33;22.55;;;;;;;;;;5058675;28;20059;-71
2021/11/16 06:55:02;;;;;;;71.00;24.15;;;;;;;;;;5051168;28;20051;-71
2021/11/16 06:57:31;;;;;;;66.97;25.00;;;;;;;;;;5051601;28;20056;-72
2021/11/16 06:59:57;;;;;;;71.18;24.85;;;;;;;;;;5046201;28;20747;-71
2021/11/16 07:02:24;;;;;;;64.43;24.25;;;;;;;;;;5056677;28;20075;-71
2021/11/16 07:04:51;;;;;;;71.35;26.45;;;;;;;;;;5056987;28;20402;-71
2021/11/16 07:07:17;;;;;;;75.07;26.75;;;;;;;;;;5049488;28;20068;-72
2021/11/16 07:09:44;;;;;;;68.18;26.58;;;;;;;;;;5059122;28;20412;-72
2021/11/16 07:12:15;;;;;;;69.93;25.67;;;;;;;;;;5050673;28;20535;-71
2021/11/16 07:14:41;;;;;;;76.68;24.73;;;;;;;;;;5057749;28;20076;-71
2021/11/16 07:17:10;;;;;;;74.18;24.98;;;;;;;;;;5050937;28;20336;-71
2021/11/16 07:19:39;;;;;;;74.40;25.50;;;;;;;;;;5057685;28;20504;-71
2021/11/16 07:22:07;;;;;;;82.32;27.73;;;;;;;;;;5054441;28;20049;-72
2021/11/16 07:24:39;;;;;;;75.82;25.05;;;;;;;;;;5045101;28;20060;-72
2021/11/16 07:27:06;;;;;;;65.18;21.98;;;;;;;;;;5055094;28;20060;-72
2021/11/16 07:29:42;;;;;;;64.30;23.48;;;;;;;;;;5051595;28;20078;-72
2021/11/16 07:32:10;;;;;;;69.28;24.67;;;;;;;;;;5057628;28;20048;-72
2021/11/16 07:34:41;;;;;;;75.32;24.85;;;;;;;;;;5049778;28;20044;-71
2021/11/16 07:37:08;;;;;;;71.80;24.50;;;;;;;;;;5056260;28;20055;-72
2021/11/16 07:39:46;;;;;;;67.47;23.50;;;;;;;;;;5058966;28;20048;-72
2021/11/16 07:42:13;;;;;;;68.47;24.10;;;;;;;;;;5055434;28;20079;-72
2021/11/16 07:44:39;;;;;;;71.80;24.10;;;;;;;;;;5055922;28;20048;-72
2021/11/16 07:47:06;;;;;;;71.68;24.50;;;;;;;;;;5042760;28;20489;-72
2021/11/16 07:49:32;;;;;;;67.28;25.05;;;;;;;;;;5055995;28;20056;-72
2021/11/16 07:51:59;;;;;;;77.75;26.30;;;;;;;;;;5049242;28;20063;-72
2021/11/16 07:54:27;;;;;;;76.80;25.65;;;;;;;;;;5057292;28;20049;-72
2021/11/16 07:57:00;;;;;;;65.55;22.52;;;;;;;;;;5054713;28;20071;-72
2021/11/16 07:59:27;;;;;;;72.32;23.92;;;;;;;;;;5050384;28;20040;-72
2021/11/16 08:02:05;;;;;;;68.07;23.85;;;;;;;;;;5054017;28;20045;-72
2021/11/16 08:04:44;;;;;;;63.03;22.02;;;;;;;;;;5052312;28;20660;-72
2021/11/16 08:07:29;;;;;;;65.00;23.40;;;;;;;;;;5056936;28;20052;-72
2021/11/16 08:09:57;;;;;;;65.40;23.02;;;;;;;;;;5051910;28;20059;-72
2021/11/16 08:12:28;;;;;;;65.30;23.23;;;;;;;;;;5056632;28;20780;-72
2021/11/16 08:14:58;;;;;;;71.35;24.30;;;;;;;;;;5024755;28;20059;-72
2021/11/16 08:17:25;;;;;;;70.60;23.67;;;;;;;;;;5056306;28;20044;-72
2021/11/16 08:19:56;;;;;;;59.90;22.35;;;;;;;;;;5052017;28;20370;-72
2021/11/16 08:22:23;;;;;;;67.80;23.30;;;;;;;;;;5056743;28;20425;-71
2021/11/16 08:24:50;;;;;;;76.03;22.85;;;;;;;;;;5056343;28;20052;-72
2021/11/16 08:27:16;;;;;;;64.50;22.27;;;;;;;;;;5044172;28;20269;-72
2021/11/16 08:29:45;;;;;;;67.85;23.73;;;;;;;;;;5052871;28;20501;-72
2021/11/16 08:32:21;;;;;;;70.63;22.80;;;;;;;;;;5048734;28;20056;-72
2021/11/16 08:34:53;;;;;;;64.20;22.05;;;;;;;;;;5058221;28;20425;-72
2021/11/16 08:37:21;;;;;;;59.80;21.95;;;;;;;;;;5051903;28;20056;-72
2021/11/16 08:39:55;;;;;;;64.63;21.73;;;;;;;;;;5056241;28;20041;-72
2021/11/16 08:42:26;;;;;;;66.95;22.80;;;;;;;;;;5046400;28;20055;-71
2021/11/16 08:45:12;;;;;;;66.47;23.40;;;;;;;;;;5057906;28;20892;-72
2021/11/16 08:47:40;;;;;;;67.22;22.80;;;;;;;;;;5057323;28;20051;-72
2021/11/16 08:50:12;;;;;;;59.33;21.55;;;;;;;;;;5051083;28;20413;-72
2021/11/16 08:52:39;;;;;;;61.28;21.27;;;;;;;;;;5058052;28;20063;-72
2021/11/16 08:55:07;;;;;;;67.72;22.08;;;;;;;;;;5032041;28;20059;-72
2021/11/16 08:57:34;;;;;;;63.00;20.67;;;;;;;;;;5039884;28;20562;-72
2021/11/16 09:00:12;;;;;;;58.50;21.08;;;;;;;;;;5052502;28;20044;-72
2021/11/16 09:02:38;;;;;;;54.67;20.35;;;;;;;;;;5056968;28;20045;-72
2021/11/16 09:05:09;;;;;;;56.80;21.75;;;;;;;;;;5047928;28;20049;-72
2021/11/16 09:07:51;;;;;;;57.65;21.08;;;;;;;;;;5049206;28;20060;-72
2021/11/16 09:10:18;;;;;;;52.60;19.83;;;;;;;;;;5056681;28;20049;-72
2021/11/16 09:12:49;;;;;;;50.05;18.65;;;;;;;;;;5046283;28;20064;-72
2021/11/16 09:15:22;;;;;;;44.92;16.17;;;;;;;;;;5055225;28;20053;-73
2021/11/16 09:17:48;;;;;;;52.10;18.48;;;;;;;;;;5046520;28;20055;-70
2021/11/16 09:20:18;;;;;;;47.25;17.63;;;;;;;;;;5038991;28;20044;-71
2021/11/16 09:22:45;;;;;;;51.22;17.10;;;;;;;;;;5051441;28;20080;-70
2021/11/16 09:25:26;;;;;;;54.05;20.10;;;;;;;;;;5056496;28;20114;-70
2021/11/16 09:28:00;;;;;;;61.70;21.88;;;;;;;;;;5055674;28;20063;-71
2021/11/16 09:30:44;;;;;;;65.30;23.02;;;;;;;;;;5049990;28;20049;-72
2021/11/16 09:33:13;;;;;;;63.90;21.70;;;;;;;;;;5055644;28;20661;-72
2021/11/16 09:35:43;;;;;;;60.90;19.80;;;;;;;;;;5033253;28;20682;-72
2021/11/16 09:38:10;;;;;;;56.35;19.98;;;;;;;;;;5057605;28;20055;-72
2021/11/16 09:40:36;;;;;;;57.00;22.10;;;;;;;;;;5049960;28;20057;-72
2021/11/16 09:43:03;;;;;;;64.15;21.70;;;;;;;;;;5054259;28;20413;-72
2021/11/16 09:45:33;;;;;;;61.13;21.65;;;;;;;;;;5046410;28;20045;-72
2021/11/16 09:48:01;;;;;;;65.60;21.25;;;;;;;;;;5055832;28;20516;-72
2021/11/16 09:50:28;;;;;;;51.03;17.85;;;;;;;;;;5056014;28;20052;-70
2021/11/16 09:52:55;;;;;;;52.72;19.58;;;;;;;;;;5048124;28;20752;-72
2021/11/16 09:55:35;;;;;;;56.63;19.10;;;;;;;;;;5057414;28;20049;-71
2021/11/16 09:58:04;;;;;;;44.08;17.85;;;;;;;;;;5045014;28;20071;-70
2021/11/16 10:00:35;;;;;;;47.38;15.68;;;;;;;;;;5049957;28;20082;-70
2021/11/16 10:03:01;;;;;;;47.45;16.92;;;;;;;;;;5046213;28;20041;-70
2021/11/16 10:05:28;;;;;;;45.10;16.83;;;;;;;;;;5056929;28;20054;-71
2021/11/16 10:08:01;;;;;;;46.75;16.08;;;;;;;;;;5045634;28;20836;-70
2021/11/16 10:10:29;;;;;;;45.42;16.50;;;;;;;;;;5053623;28;20058;-70
2021/11/16 10:12:57;;;;;;;41.90;15.88;;;;;;;;;;5043203;28;20450;-71
2021/11/16 10:15:26;;;;;;;40.60;14.23;;;;;;;;;;5045947;28;20059;-71
2021/11/16 10:17:53;;;;;;;47.00;18.48;;;;;;;;;;5054035;28;20053;-70
2021/11/16 10:20:22;;;;;;;45.67;17.83;;;;;;;;;;5048854;28;20135;-70
2021/11/16 10:23:09;;;;;;;50.55;17.85;;;;;;;;;;5057097;28;20053;-71
2021/11/16 10:25:37;;;;;;;51.53;18.53;;;;;;;;;;5048964;28;20060;-70
2021/11/16 10:28:08;;;;;;;52.87;18.13;;;;;;;;;;5036284;28;20052;-71
2021/11/16 10:30:35;;;;;;;54.75;19.35;;;;;;;;;;5053484;28;20288;-70
2021/11/16 10:33:16;;;;;;;52.75;19.33;;;;;;;;;;5056880;28;20472;-71
2021/11/16 10:35:50;;;;;;;57.25;19.52;;;;;;;;;;5058621;28;20541;-71
2021/11/16 10:38:17;;;;;;;57.05;18.65;;;;;;;;;;5049962;28;20044;-71
2021/11/16 10:40:44;;;;;;;50.88;18.50;;;;;;;;;;5050214;28;20064;-71
2021/11/16 10:43:11;;;;;;;56.15;18.30;;;;;;;;;;5049748;28;20049;-71
2021/11/16 10:45:39;;;;;;;45.40;17.10;;;;;;;;;;5058902;28;20044;-70
2021/11/16 10:48:08;;;;;;;47.83;16.95;;;;;;;;;;5050766;28;20394;-71
2021/11/16 10:50:36;;;;;;;51.67;17.75;;;;;;;;;;5059236;28;20052;-70
2021/11/16 10:53:09;;;;;;;47.25;17.05;;;;;;;;;;5036229;28;20159;-71
2021/11/16 10:55:40;;;;;;;45.08;17.02;;;;;;;;;;5052499;28;20059;-71
2021/11/16 10:58:09;;;;;;;43.97;16.80;;;;;;;;;;5059045;28;20049;-70
2021/11/16 11:00:39;;;;;;;48.75;18.27;;;;;;;;;;5052489;28;20055;-71
2021/11/16 11:03:16;;;;;;;43.83;17.02;;;;;;;;;;5060657;28;20051;-71
2021/11/16 11:05:46;;;;;;;50.05;18.58;;;;;;;;;;5052400;28;20040;-72
2021/11/16 11:08:33;;;;;;;45.75;17.90;;;;;;;;;;5053690;28;20044;-71
2021/11/16 11:11:04;;;;;;;41.67;16.77;;;;;;;;;;5051086;28;20508;-71
2021/11/16 11:13:32;;;;;;;63.27;21.40;;;;;;;;;;5059901;28;20055;-71
2021/11/16 11:15:58;;;;;;;48.85;18.65;;;;;;;;;;5053116;28;20376;-71
2021/11/16 11:18:32;;;;;;;50.75;18.30;;;;;;;;;;5058056;28;20049;-71
2021/11/16 11:21:00;;;;;;;54.28;18.52;;;;;;;;;;5055521;28;20070;-71
2021/11/16 11:23:28;;;;;;;49.78;17.52;;;;;;;;;;5047275;28;20076;-71
2021/11/16 11:26:37;;;;;;;48.47;17.70;;;;;;;;;;5059719;28;20517;-71
2021/11/16 11:29:19;;;;;;;48.42;17.77;;;;;;;;;;4985531;28;20046;-71
2021/11/16 11:31:47;;;;;;;48.58;17.88;;;;;;;;;;4984278;28;20135;-71
2021/11/16 11:34:14;;;;;;;42.72;17.15;;;;;;;;;;4979925;28;20247;-71
2021/11/16 11:36:41;;;;;;;47.63;18.55;;;;;;;;;;4974820;28;20106;-71
2021/11/16 11:39:19;;;;;;;44.30;17.95;;;;;;;;;;4976529;28;20067;-71
2021/11/16 11:41:47;;;;;;;52.15;19.15;;;;;;;;;;5004790;28;20135;-70
2021/11/16 11:44:19;;;;;;;39.63;16.15;;;;;;;;;;4999289;28;20057;-71
2021/11/16 11:46:46;;;;;;;36.33;15.27;;;;;;;;;;4977457;28;20506;-71
2021/11/16 11:49:13;;;;;;;41.22;16.75;;;;;;;;;;4963996;28;20054;-71
2021/11/16 11:51:40;;;;;;;39.20;15.30;;;;;;;;;;4972539;28;20053;-70
2021/11/16 11:54:07;;;;;;;48.97;17.63;;;;;;;;;;4981879;28;20058;-71
2021/11/16 11:56:35;;;;;;;48.03;16.70;;;;;;;;;;4971204;28;20049;-73
2021/11/16 11:59:02;;;;;;;38.65;15.75;;;;;;;;;;5004141;28;20040;-71
2021/11/16 12:01:29;;;;;;;41.60;15.60;;;;;;;;;;5052048;28;20084;-71
2021/11/16 12:03:56;;;;;;;38.33;15.52;;;;;;;;;;5050852;28;20381;-71
2021/11/16 12:06:23;;;;;;;42.50;15.18;;;;;;;;;;5055980;28;20045;-71
2021/11/16 12:08:51;;;;;;;40.83;15.38;;;;;;;;;;5051377;28;20060;-71
2021/11/16 12:11:18;;;;;;;37.60;14.33;;;;;;;;;;5057701;28;20062;-70
2021/11/16 12:13:46;;;;;;;38.57;15.60;;;;;;;;;;5049873;28;20115;-71
2021/11/16 12:16:18;;;;;;;40.53;15.55;;;;;;;;;;5046185;28;20310;-71
2021/11/16 12:18:45;;;;;;;39.50;16.20;;;;;;;;;;5026758;28;20504;-71
2021/11/16 12:21:24;;;;;;;37.83;15.57;;;;;;;;;;5056380;28;20045;-71
2021/11/16 12:23:55;;;;;;;39.72;14.52;;;;;;;;;;5057177;28;20055;-71
2021/11/16 12:26:22;;;;;;;36.75;15.68;;;;;;;;;;5030876;28;20045;-71
2021/11/16 12:28:48;;;;;;;35.50;13.38;;;;;;;;;;5056526;28;20052;-71
2021/11/16 12:31:22;;;;;;;36.85;14.93;;;;;;;;;;5025783;28;20075;-71
2021/11/16 12:33:49;;;;;;;35.97;14.20;;;;;;;;;;5051381;28;20078;-71
2021/11/16 12:36:35;;;;;;;43.80;16.10;;;;;;;;;;5049626;28;20059;-71
2021/11/16 12:39:11;;;;;;;36.65;14.43;;;;;;;;;;5055551;28;20055;-71
2021/11/16 12:41:40;;;;;;;41.80;16.20;;;;;;;;;;5048810;28;20049;-71
2021/11/16 12:44:11;;;;;;;44.78;16.02;;;;;;;;;;5054218;28;20045;-71
2021/11/16 12:46:39;;;;;;;43.55;15.65;;;;;;;;;;5052608;28;20044;-71
2021/11/16 12:49:10;;;;;;;37.80;15.23;;;;;;;;;;5050811;28;20558;-71
2021/11/16 12:51:51;;;;;;;43.10;15.85;;;;;;;;;;5057589;28;20492;-71
2021/11/16 12:54:19;;;;;;;39.13;15.02;;;;;;;;;;5033093;28;20041;-71
2021/11/16 12:56:46;;;;;;;34.65;13.77;;;;;;;;;;5055872;28;20052;-71
2021/11/16 12:59:32;;;;;;;40.17;14.90;;;;;;;;;;5043245;28;20142;-71
2021/11/16 13:02:02;;;;;;;41.22;14.18;;;;;;;;;;5056443;28;20053;-71
2021/11/16 13:04:43;;;;;;;41.35;15.68;;;;;;;;;;5047958;28;20055;-71
2021/11/16 13:07:17;;;;;;;38.03;14.77;;;;;;;;;;5055919;28;20657;-71
2021/11/16 13:10:07;;;;;;;43.70;15.63;;;;;;;;;;5048782;28;20055;-71
2021/11/16 13:12:33;;;;;;;40.53;14.75;;;;;;;;;;5041677;28;20131;-71
2021/11/16 13:15:01;;;;;;;45.15;17.13;;;;;;;;;;5053571;28;20048;-71
2021/11/16 13:17:51;;;;;;;48.25;16.42;;;;;;;;;;5029400;28;21037;-71
2021/11/16 13:20:32;;;;;;;43.00;17.10;;;;;;;;;;5055997;28;20048;-71
2021/11/16 13:23:04;;;;;;;44.08;17.65;;;;;;;;;;5047924;28;20052;-71
2021/11/16 13:25:43;;;;;;;44.80;17.35;;;;;;;;;;5049249;28;20690;-71
2021/11/16 13:28:13;;;;;;;;;;;;;;;;;;5042307;28;20048;-71
2021/11/16 13:30:41;;;;;;;46.42;15.90;;;;;;;;;;5053843;28;19959;-72
2021/11/16 13:33:26;;;;;;;40.50;16.03;;;;;;;;;;5033514;28;20063;-71
2021/11/16 13:36:02;;;;;;;40.70;14.93;;;;;;;;;;5040106;28;20538;-71
2021/11/16 13:38:48;;;;;;;39.08;14.80;;;;;;;;;;5048944;28;20504;-71
2021/11/16 13:41:34;;;;;;;40.78;15.93;;;;;;;;;;5051605;28;20052;-71
2021/11/16 13:44:12;;;;;;;40.55;16.42;;;;;;;;;;5049359;28;20394;-70
2021/11/16 13:46:39;;;;;;;47.63;18.58;;;;;;;;;;5056177;28;20390;-71
2021/11/16 13:49:05;;;;;;;41.40;16.67;;;;;;;;;;5057024;28;20083;-71
2021/11/16 13:51:32;;;;;;;42.53;17.08;;;;;;;;;;5046534;28;20071;-71
2021/11/16 13:54:01;;;;;;;46.90;17.23;;;;;;;;;;5052368;28;20182;-71
2021/11/16 13:56:28;;;;;;;42.03;15.52;;;;;;;;;;5052559;28;20672;-71
2021/11/16 13:58:57;;;;;;;37.40;14.88;;;;;;;;;;5058684;28;20052;-71
2021/11/16 14:01:28;;;;;;;37.47;14.93;;;;;;;;;;5051207;28;20104;-71
2021/11/16 14:04:06;;;;;;;42.67;16.50;;;;;;;;;;5058605;28;20084;-71
2021/11/16 14:06:32;;;;;;;39.50;15.27;;;;;;;;;;5045971;28;20051;-71
2021/11/16 14:09:10;;;;;;;42.58;15.18;;;;;;;;;;5054215;28;20052;-71
2021/11/16 14:11:47;;;;;;;38.38;14.93;;;;;;;;;;5057951;28;20055;-71
2021/11/16 14:14:16;;;;;;;42.13;16.27;;;;;;;;;;5052340;28;20512;-71
2021/11/16 14:16:43;;;;;;;45.78;17.13;;;;;;;;;;5060094;28;20052;-71
2021/11/16 14:19:10;;;;;;;51.30;19.85;;;;;;;;;;5052263;28;20051;-71
2021/11/16 14:21:37;;;;;;;48.25;18.17;;;;;;;;;;5053687;28;20263;-71
2021/11/16 14:24:03;;;;;;;43.97;18.33;;;;;;;;;;5052116;28;20456;-71
2021/11/16 14:26:38;;;;;;;46.65;18.60;;;;;;;;;;5060178;28;20048;-71
2021/11/16 14:29:06;;;;;;;49.55;18.33;;;;;;;;;;5056061;28;20472;-70
2021/11/16 14:31:33;;;;;;;40.50;16.75;;;;;;;;;;5056178;28;20064;-70
2021/11/16 14:34:11;;;;;;;45.42;17.65;;;;;;;;;;5032937;28;20048;-70
2021/11/16 14:36:39;;;;;;;48.33;16.40;;;;;;;;;;5033534;28;20045;-70
2021/11/16 14:39:08;;;;;;;41.50;16.70;;;;;;;;;;5059239;28;20488;-70
2021/11/16 14:41:40;;;;;;;42.70;17.02;;;;;;;;;;5049952;28;20075;-70
2021/11/16 14:44:08;;;;;;;50.90;19.02;;;;;;;;;;5059558;28;20044;-70